Time;durP1;ratioP1;P1;durP2;ratioP2;P2;SDS_P1;SDS_P2;PMS_P1;PMS_P2;Temp;Humidity;BMP_temperature;BMP_pressure;BME280_temperature;BME280_humidity;BME280_pressure;Samples;Min_cycle;Max_cycle;Signal;HPM_P1;HPM_P2
2022/10/13 00:01:09;;;;;;;22.02;13.50;;;;;;;11.48;88.32;96327.55;1716691;83;21074;-70
2022/10/13 00:03:39;;;;;;;23.98;14.05;;;;;;;11.52;88.70;96331.50;1715732;84;21548;-70
2022/10/13 00:06:09;;;;;;;22.35;14.23;;;;;;;11.50;88.46;96332.83;1716396;84;21074;-70
2022/10/13 00:08:37;;;;;;;20.27;13.58;;;;;;;11.56;88.78;96327.91;1716418;83;21030;-71
2022/10/13 00:11:26;;;;;;;20.43;12.95;;;;;;;11.55;88.51;96332.78;1716469;83;21031;-70
2022/10/13 00:14:00;;;;;;;17.60;14.03;;;;;;;11.50;87.93;96327.54;1716378;83;21072;-70
2022/10/13 00:16:30;;;;;;;20.82;13.28;;;;;;;11.47;88.22;96325.80;1716532;84;21534;-70
2022/10/13 00:18:57;;;;;;;19.50;12.95;;;;;;;11.51;88.74;96329.73;1716401;83;21477;-70
2022/10/13 00:21:26;;;;;;;21.20;13.62;;;;;;;11.48;88.46;96328.86;1716444;84;21027;-70
2022/10/13 00:23:54;;;;;;;18.30;13.30;;;;;;;11.50;88.81;96329.31;1716371;83;20996;-70
2022/10/13 00:26:23;;;;;;;20.23;13.40;;;;;;;11.53;88.77;96325.31;1716724;83;21019;-69
2022/10/13 00:28:50;;;;;;;21.30;13.93;;;;;;;11.48;88.32;96319.61;1724289;83;21029;-70
2022/10/13 00:31:24;;;;;;;19.25;13.93;;;;;;;11.52;88.86;96328.41;1724203;82;21509;-70
2022/10/13 00:45:59;;;;;;;21.75;16.73;;;;;;;12.50;86.07;96312.66;1838230;77;23372;-68
2022/10/13 00:48:30;;;;;;;25.70;16.23;;;;;;;12.13;86.36;96314.94;1825782;78;20983;-69
2022/10/13 00:50:58;;;;;;;23.27;16.35;;;;;;;12.01;86.84;96296.13;1824447;78;21037;-70
2022/10/13 00:53:29;;;;;;;22.45;16.73;;;;;;;12.01;86.84;96296.13;1782699;78;20994;-69
2022/10/13 00:55:56;;;;;;;17.00;14.23;;;;;;;11.94;86.56;96296.22;1809637;78;20985;-70
2022/10/13 00:58:25;;;;;;;18.70;13.28;;;;;;;11.80;86.84;96283.16;1734216;81;20990;-69
2022/10/13 01:00:52;;;;;;;14.45;10.88;;;;;;;11.67;86.92;96278.47;1765961;80;20974;-69
2022/10/13 01:03:21;;;;;;;16.80;12.35;;;;;;;11.51;86.96;96281.70;1764320;80;20978;-68
2022/10/13 01:05:49;;;;;;;18.55;12.70;;;;;;;11.42;87.14;96294.59;1764823;80;21026;-69
2022/10/13 01:08:18;;;;;;;15.50;11.45;;;;;;;11.36;87.52;96302.56;1768148;80;21021;-68
2022/10/13 01:11:25;;;;;;;16.97;12.53;;;;;;;11.25;88.29;96297.84;1763978;80;21086;-69
2022/10/13 01:14:41;;;;;;;17.65;12.13;;;;;;;11.19;88.55;96297.47;1763294;80;21065;-69
2022/10/13 01:17:21;;;;;;;22.00;13.95;;;;;;;11.20;89.12;96295.70;1777215;80;21003;-69
2022/10/13 01:20:22;;;;;;;14.05;10.40;;;;;;;11.25;89.55;96292.56;1773366;80;21033;-68
2022/10/13 01:23:08;;;;;;;20.40;13.30;;;;;;;11.18;88.41;96293.52;1763251;80;21006;-69
2022/10/13 01:25:52;;;;;;;18.70;12.68;;;;;;;11.13;89.05;96288.27;1750126;80;21048;-69
2022/10/13 01:28:58;;;;;;;14.55;9.85;;;;;;;11.09;89.12;96289.20;1771683;80;21046;-70
2022/10/13 01:31:51;;;;;;;22.05;12.50;;;;;;;11.00;88.56;96290.60;1763143;80;21133;-69
2022/10/13 01:34:34;;;;;;;15.75;12.40;;;;;;;10.98;89.40;96302.94;1777086;80;21021;-69
2022/10/13 01:37:38;;;;;;;17.23;12.07;;;;;;;10.99;89.41;96301.62;1749432;80;21038;-69
2022/10/13 01:40:20;;;;;;;16.17;11.18;;;;;;;11.00;90.01;96298.07;1778630;80;21071;-69
2022/10/13 01:42:55;;;;;;;17.48;12.15;;;;;;;10.87;89.03;96291.61;1763691;80;21038;-69
2022/10/13 01:45:27;;;;;;;17.10;11.70;;;;;;;10.81;89.53;96289.45;1766149;80;21077;-69
2022/10/13 01:47:55;;;;;;;15.55;11.63;;;;;;;10.79;89.68;96286.39;1779631;80;21026;-69
2022/10/13 01:50:22;;;;;;;14.58;10.90;;;;;;;10.81;89.98;96295.19;1773160;80;20987;-69
2022/10/13 01:52:50;;;;;;;17.75;11.30;;;;;;;10.73;89.08;96289.94;1769100;80;21042;-69
2022/10/13 01:55:17;;;;;;;19.85;11.43;;;;;;;10.65;89.22;96285.17;1784003;80;21595;-69
2022/10/13 01:57:44;;;;;;;14.40;11.05;;;;;;;10.64;89.27;96282.56;1768310;80;20994;-69
2022/10/13 02:00:16;;;;;;;17.30;12.05;;;;;;;10.63;89.03;96284.30;1763260;80;21092;-68
2022/10/13 02:03:12;;;;;;;17.87;12.68;;;;;;;10.66;89.76;96288.26;1781089;80;21507;-69
2022/10/13 02:05:59;;;;;;;19.05;10.90;;;;;;;10.72;89.75;96288.64;1785875;80;21067;-69
2022/10/13 02:08:44;;;;;;;15.18;10.70;;;;;;;10.68;89.03;96280.31;1769235;80;21148;-69
2022/10/13 02:11:17;;;;;;;18.40;10.75;;;;;;;10.66;89.17;96280.34;1761211;80;21018;-69
2022/10/13 02:14:10;;;;;;;14.23;10.48;;;;;;;10.60;89.44;96280.38;1777403;80;21070;-69
2022/10/13 02:16:43;;;;;;;15.53;10.43;;;;;;;10.63;89.49;96284.30;1737291;81;21057;-69
2022/10/13 02:19:14;;;;;;;20.15;11.05;;;;;;;10.58;89.00;96279.08;1737694;81;21070;-69
2022/10/13 02:21:44;;;;;;;20.57;11.43;;;;;;;10.58;89.18;96272.91;1739295;81;20994;-69
2022/10/13 02:24:11;;;;;;;22.87;10.70;;;;;;;10.59;88.99;96277.31;1758895;81;21036;-69
2022/10/13 02:26:38;;;;;;;16.52;10.03;;;;;;;10.59;89.57;96282.59;1742193;81;21053;-68
2022/10/13 02:29:15;;;;;;;13.72;9.20;;;;;;;10.57;89.64;96283.05;1772835;80;21013;-69
2022/10/13 02:31:44;;;;;;;15.25;10.88;;;;;;;10.62;89.85;96275.96;1768052;80;21053;-69
2022/10/13 02:34:11;;;;;;;18.95;10.60;;;;;;;10.61;89.64;96275.09;1733608;81;21014;-69
2022/10/13 02:36:38;;;;;;;15.40;11.68;;;;;;;10.64;89.71;96279.47;1769811;80;21008;-69
2022/10/13 02:39:08;;;;;;;17.20;11.00;;;;;;;10.67;90.16;96278.57;1772554;80;20992;-68
2022/10/13 02:41:35;;;;;;;22.52;11.57;;;;;;;10.74;90.00;96278.95;1770890;80;21013;-69
2022/10/13 02:44:02;;;;;;;13.45;10.20;;;;;;;10.76;89.73;96281.11;1763873;80;20990;-69
2022/10/13 02:46:30;;;;;;;23.35;11.35;;;;;;;10.78;89.99;96284.17;1738293;82;21062;-68
2022/10/13 02:48:57;;;;;;;13.68;10.43;;;;;;;10.76;89.72;96279.80;1759604;81;21060;-69
2022/10/13 02:51:26;;;;;;;15.10;10.48;;;;;;;10.79;89.78;96280.66;1753963;81;21014;-68
2022/10/13 02:53:52;;;;;;;12.70;8.30;;;;;;;10.79;89.41;96281.11;1749679;81;21073;-70
2022/10/13 02:56:19;;;;;;;14.83;9.98;;;;;;;10.74;89.36;96281.59;1750992;81;21049;-69
2022/10/13 02:58:45;;;;;;;18.32;10.18;;;;;;;10.69;89.70;96282.95;1746100;81;21309;-69
2022/10/13 03:01:14;;;;;;;13.70;9.28;;;;;;;10.64;89.64;96284.75;1745990;81;21109;-69
2022/10/13 03:03:42;;;;;;;11.80;9.70;;;;;;;10.60;89.58;96279.05;1755496;81;21157;-69
2022/10/13 03:06:09;;;;;;;19.07;10.70;;;;;;;10.57;90.14;96282.59;1753251;81;21053;-69
2022/10/13 03:08:35;;;;;;;17.70;10.28;;;;;;;10.60;90.35;96281.23;1748869;81;21085;-69
2022/10/13 03:11:02;;;;;;;13.13;10.25;;;;;;;10.70;90.73;96284.69;1761773;81;21038;-69
2022/10/13 03:13:29;;;;;;;25.72;10.90;;;;;;;10.73;90.48;96279.83;1745995;81;21562;-69
2022/10/13 03:15:57;;;;;;;18.85;14.20;;;;;;;10.79;90.38;96285.95;1756246;81;21078;-69
2022/10/13 03:18:24;;;;;;;20.02;14.68;;;;;;;10.76;89.77;96283.34;1750807;81;21014;-69
2022/10/13 03:21:05;;;;;;;19.37;12.93;;;;;;;10.70;89.46;96286.01;1756865;81;21061;-69
2022/10/13 03:23:33;;;;;;;21.10;14.10;;;;;;;10.69;89.99;96281.63;1759001;81;21534;-68
2022/10/13 03:26:00;;;;;;;20.00;14.20;;;;;;;10.65;89.51;96279.02;1748928;81;20990;-69
2022/10/13 03:28:27;;;;;;;19.40;14.40;;;;;;;10.65;90.19;96281.21;1745960;81;21053;-68
2022/10/13 03:31:09;;;;;;;20.12;12.65;;;;;;;10.65;90.22;96278.57;1757032;81;21074;-69
2022/10/13 03:33:36;;;;;;;23.27;12.93;;;;;;;10.62;89.74;96273.33;1760447;81;21077;-69
2022/10/13 03:36:06;;;;;;;18.90;12.23;;;;;;;10.58;89.67;96279.08;1745533;81;21021;-69
2022/10/13 03:38:34;;;;;;;15.55;11.53;;;;;;;10.57;90.13;96291.83;1751803;81;21029;-69
2022/10/13 03:41:11;;;;;;;18.98;12.47;;;;;;;10.58;90.45;96287.00;1753799;81;21303;-69
2022/10/13 03:43:38;;;;;;;23.07;13.58;;;;;;;10.65;90.83;96290.45;1748924;81;21129;-68
2022/10/13 03:46:07;;;;;;;19.45;13.28;;;;;;;10.66;90.50;96290.90;1751876;81;21097;-69
2022/10/13 03:48:36;;;;;;;17.77;10.63;;;;;;;10.64;90.80;96288.71;1757799;81;21034;-69
2022/10/13 03:51:13;;;;;;;22.73;14.98;;;;;;;10.64;90.59;96286.07;1754254;81;21102;-69
2022/10/13 03:53:41;;;;;;;22.40;14.83;;;;;;;10.62;90.57;96289.16;1747413;81;21077;-69
2022/10/13 03:56:13;;;;;;;16.35;11.08;;;;;;;10.68;91.00;96288.23;1745853;81;21017;-69
2022/10/13 03:58:42;;;;;;;11.75;7.72;;;;;;;10.71;90.55;96289.09;1752396;81;21137;-69
2022/10/13 04:01:12;;;;;;;11.00;7.85;;;;;;;10.71;90.09;96288.20;1757708;81;21102;-69
2022/10/13 04:03:41;;;;;;;11.85;8.20;;;;;;;10.71;90.20;96282.50;1755541;81;21565;-69
2022/10/13 04:06:09;;;;;;;9.63;7.65;;;;;;;10.68;90.21;96287.77;1756729;81;21500;-69
2022/10/13 04:08:36;;;;;;;16.12;9.08;;;;;;;10.69;90.22;96286.91;1748607;81;21101;-69
2022/10/13 04:11:07;;;;;;;17.92;9.30;;;;;;;10.71;90.13;96285.14;1746800;81;21061;-68
2022/10/13 04:13:34;;;;;;;14.90;10.58;;;;;;;10.72;90.13;96283.37;1752202;81;21540;-69
2022/10/13 04:16:05;;;;;;;19.17;12.75;;;;;;;10.71;90.17;96285.56;1746580;81;21490;-69
2022/10/13 04:18:32;;;;;;;14.18;7.97;;;;;;;10.70;90.14;96283.82;1752209;81;21088;-69
2022/10/13 04:20:59;;;;;;;13.25;8.00;;;;;;;10.66;90.03;96282.08;1751091;81;21427;-68
2022/10/13 04:23:25;;;;;;;17.20;7.83;;;;;;;10.65;90.10;96277.70;1745679;82;21049;-69
2022/10/13 04:25:52;;;;;;;11.70;6.95;;;;;;;10.63;89.71;96276.83;1745947;81;21037;-69
2022/10/13 04:28:19;;;;;;;13.78;9.83;;;;;;;10.58;89.69;96276.45;1762523;81;21013;-69
2022/10/13 04:30:45;;;;;;;19.42;12.10;;;;;;;10.59;90.28;96277.31;1746784;81;21041;-69
2022/10/13 04:33:12;;;;;;;16.82;10.30;;;;;;;10.66;90.81;96275.48;1746384;81;21052;-69
2022/10/13 04:35:40;;;;;;;15.75;10.72;;;;;;;10.73;90.82;96282.02;1751870;81;21054;-69
2022/10/13 04:38:07;;;;;;;17.25;12.55;;;;;;;10.74;90.13;96270.59;1752504;81;21065;-69
2022/10/13 04:40:34;;;;;;;15.75;10.50;;;;;;;10.68;89.79;96267.98;1745906;81;21152;-69
2022/10/13 04:43:02;;;;;;;12.58;7.58;;;;;;;10.64;89.83;96264.09;1746325;81;21074;-69
2022/10/13 04:45:29;;;;;;;10.25;7.15;;;;;;;10.63;89.96;96265.83;1751949;81;21498;-69
2022/10/13 04:47:56;;;;;;;17.48;10.63;;;;;;;10.59;90.28;96266.30;1750288;81;20993;-69
2022/10/13 04:50:23;;;;;;;15.85;10.88;;;;;;;10.58;90.41;96271.59;1748330;81;21498;-69
2022/10/13 04:52:51;;;;;;;13.85;8.53;;;;;;;10.56;90.30;96273.39;1754392;81;21045;-69
2022/10/13 04:55:18;;;;;;;13.10;7.40;;;;;;;10.52;90.93;96276.47;1750404;81;21069;-69
2022/10/13 04:57:44;;;;;;;16.37;6.90;;;;;;;10.51;90.40;96273.41;1759902;81;21026;-68
2022/10/13 05:00:12;;;;;;;10.35;6.28;;;;;;;10.52;90.58;96272.52;1758522;81;21476;-66
2022/10/13 05:02:39;;;;;;;11.65;7.65;;;;;;;10.51;90.69;96271.23;1751086;81;21779;-63
2022/10/13 05:05:07;;;;;;;11.80;7.05;;;;;;;10.51;90.53;96276.50;1750727;81;21049;-68
2022/10/13 05:07:34;;;;;;;14.53;8.58;;;;;;;10.55;90.88;96268.98;1754489;81;21053;-64
2022/10/13 05:10:01;;;;;;;11.43;7.90;;;;;;;10.60;91.20;96273.77;1750587;81;21070;-67
2022/10/13 05:12:27;;;;;;;13.40;8.75;;;;;;;10.66;91.04;96272.42;1750332;81;21025;-68
2022/10/13 05:14:54;;;;;;;16.75;10.32;;;;;;;10.71;90.97;96273.27;1748987;81;21017;-73
2022/10/13 05:17:21;;;;;;;13.58;10.28;;;;;;;10.71;90.37;96277.22;1752032;81;21039;-71
2022/10/13 05:19:48;;;;;;;16.30;7.33;;;;;;;10.71;90.17;96281.18;1755485;81;20992;-69
2022/10/13 05:22:15;;;;;;;17.57;10.32;;;;;;;10.71;90.34;96281.18;1746200;81;21033;-71
2022/10/13 05:24:41;;;;;;;12.80;10.05;;;;;;;10.72;90.33;96281.59;1749239;81;21141;-70
2022/10/13 05:27:12;;;;;;;18.82;9.63;;;;;;;10.71;90.00;96283.82;1753557;81;21088;-72
2022/10/13 05:29:39;;;;;;;12.45;8.10;;;;;;;10.67;89.95;96280.77;1750463;81;21744;-70
2022/10/13 05:32:07;;;;;;;17.35;9.68;;;;;;;10.65;89.93;96283.84;1758433;81;21026;-66
2022/10/13 05:34:34;;;;;;;26.82;19.67;;;;;;;10.71;90.62;96282.50;1750193;81;21640;-65
2022/10/13 05:37:00;;;;;;;45.15;31.73;;;;;;;10.75;90.79;96286.84;1746222;81;21018;-72
2022/10/13 05:39:28;;;;;;;45.75;34.35;;;;;;;10.77;90.36;96286.84;1757130;81;21006;-72
2022/10/13 05:41:54;;;;;;;39.05;25.60;;;;;;;10.80;90.16;96284.17;1752828;81;21088;-69
2022/10/13 05:44:21;;;;;;;36.70;23.10;;;;;;;10.81;90.09;96289.45;1761412;81;21536;-67
2022/10/13 05:46:55;;;;;;;49.25;29.85;;;;;;;10.93;90.81;96292.41;1746535;81;21029;-68
2022/10/13 05:49:22;;;;;;;40.70;30.27;;;;;;;11.00;90.76;96293.24;1745641;82;21538;-69
2022/10/13 05:51:54;;;;;;;41.28;29.90;;;;;;;11.11;90.97;96287.40;1752074;81;21082;-69
2022/10/13 05:54:36;;;;;;;46.13;29.75;;;;;;;11.23;91.26;96292.56;1745385;81;21105;-75
2022/10/13 05:57:20;;;;;;;35.95;25.65;;;;;;;11.31;90.32;96292.94;1743303;81;21047;-71
2022/10/13 05:59:51;;;;;;;33.50;21.12;;;;;;;11.33;90.09;96299.95;1752038;81;21083;-71
2022/10/13 06:02:21;;;;;;;26.77;19.52;;;;;;;11.40;90.14;96300.78;1744913;81;21078;-67
2022/10/13 06:04:51;;;;;;;27.50;17.80;;;;;;;11.45;89.88;96299.83;1754522;81;21354;-73
2022/10/13 06:07:19;;;;;;;20.23;13.53;;;;;;;11.45;89.58;96303.80;1743687;81;21055;-68
2022/10/13 06:09:45;;;;;;;17.60;11.20;;;;;;;11.52;89.94;96305.07;1738471;82;21026;-67
2022/10/13 06:12:12;;;;;;;17.67;10.75;;;;;;;11.63;90.36;96300.08;1761252;81;21080;-65
2022/10/13 06:14:39;;;;;;;18.05;11.03;;;;;;;11.70;89.48;96303.53;1731930;82;21114;-64
2022/10/13 06:17:07;;;;;;;19.00;10.43;;;;;;;11.76;89.92;96301.26;1757538;81;21491;-66
2022/10/13 06:19:33;;;;;;;18.07;10.18;;;;;;;11.87;89.74;96304.70;1741488;81;21066;-64
2022/10/13 06:22:02;;;;;;;16.05;10.50;;;;;;;11.96;89.57;96301.05;1737459;82;21570;-65
2022/10/13 06:24:29;;;;;;;17.57;10.82;;;;;;;12.04;89.09;96300.04;1756628;81;21051;-66
2022/10/13 06:26:56;;;;;;;16.85;12.70;;;;;;;12.06;88.41;96304.00;1750843;81;21515;-67
2022/10/13 06:29:22;;;;;;;42.85;35.28;;;;;;;12.05;88.22;96304.91;1752932;81;21061;-66
2022/10/13 06:31:49;;;;;;;21.33;16.87;;;;;;;12.05;88.24;96307.09;1753187;81;21109;-65
2022/10/13 06:34:16;;;;;;;31.97;28.17;;;;;;;12.13;88.74;96302.58;1744366;81;21207;-64
2022/10/13 06:36:43;;;;;;;17.90;14.65;;;;;;;12.28;88.92;96300.62;1749539;81;21069;-62
2022/10/13 06:39:11;;;;;;;28.47;18.73;;;;;;;12.37;87.92;96304.45;1749860;81;20994;-64
2022/10/13 06:41:38;;;;;;;24.07;14.68;;;;;;;12.33;87.42;96304.08;1740169;81;21122;-62
2022/10/13 06:44:05;;;;;;;19.75;13.55;;;;;;;12.42;88.17;96295.99;1740237;81;21069;-63
2022/10/13 06:46:31;;;;;;;25.05;13.45;;;;;;;12.50;87.52;96301.20;1742879;81;21029;-63
2022/10/13 06:48:58;;;;;;;21.95;13.85;;;;;;;12.58;87.89;96301.09;1754487;81;21038;-64
2022/10/13 06:51:27;;;;;;;17.98;13.03;;;;;;;12.65;87.46;96298.32;1747532;81;21010;-63
2022/10/13 06:53:55;;;;;;;17.35;12.13;;;;;;;12.83;87.95;96297.16;1751341;81;21081;-62
2022/10/13 06:56:23;;;;;;;17.37;11.43;;;;;;;12.86;86.91;96299.75;1756593;81;21062;-64
2022/10/13 06:58:50;;;;;;;19.42;9.88;;;;;;;12.93;87.09;96308.48;1745369;81;21683;-64
2022/10/13 07:01:16;;;;;;;12.93;9.98;;;;;;;12.95;86.60;96296.05;1741289;81;20979;-65
2022/10/13 07:03:43;;;;;;;12.90;10.03;;;;;;;12.96;86.37;96303.13;1749892;81;21066;-65
2022/10/13 07:06:09;;;;;;;11.63;8.48;;;;;;;13.03;86.72;96298.57;1739201;81;21042;-62
2022/10/13 07:08:36;;;;;;;11.68;8.65;;;;;;;13.11;86.25;96298.89;1738794;82;21105;-63
2022/10/13 07:11:12;;;;;;;14.28;8.88;;;;;;;13.13;84.78;96298.41;1739273;82;21508;-63
2022/10/13 07:13:41;;;;;;;13.70;9.75;;;;;;;13.13;84.78;96298.41;1738798;81;20994;-63
2022/10/13 07:16:08;;;;;;;13.90;9.33;;;;;;;13.17;85.31;96296.57;1727453;83;21022;-64
2022/10/13 07:18:35;;;;;;;11.30;8.85;;;;;;;13.17;84.50;96296.11;1745354;82;21042;-63
2022/10/13 07:21:02;;;;;;;17.02;12.70;;;;;;;13.16;84.46;96299.67;1791425;80;21006;-66
2022/10/13 07:23:30;;;;;;;16.65;9.08;;;;;;;13.10;84.56;96294.50;1786259;79;21594;-64
2022/10/13 07:25:58;;;;;;;13.35;9.08;;;;;;;13.17;85.47;96300.55;1788285;79;20975;-63
2022/10/13 07:28:25;;;;;;;10.65;8.93;;;;;;;13.26;85.46;96302.17;1784460;79;21502;-64
2022/10/13 07:30:53;;;;;;;12.03;9.25;;;;;;;13.33;85.37;96298.52;1791197;80;21001;-63
2022/10/13 07:33:20;;;;;;;12.30;9.05;;;;;;;13.38;85.51;96304.19;1790735;80;21015;-63
2022/10/13 07:35:46;;;;;;;11.00;8.10;;;;;;;13.41;84.80;96297.50;1796509;78;21038;-63
2022/10/13 07:38:13;;;;;;;15.50;9.90;;;;;;;13.34;84.66;96294.98;1785421;79;21057;-64
2022/10/13 07:40:40;;;;;;;11.20;9.40;;;;;;;13.34;84.66;96294.98;1791400;79;20999;-65
2022/10/13 07:43:08;;;;;;;16.37;9.70;;;;;;;13.42;85.21;96291.73;1790082;80;21579;-65
2022/10/13 07:45:34;;;;;;;13.30;10.28;;;;;;;13.48;85.27;96293.39;1785225;79;21086;-65
2022/10/13 07:48:01;;;;;;;13.38;9.93;;;;;;;13.56;85.16;96296.80;1720819;83;21079;-65
2022/10/13 07:50:28;;;;;;;17.40;9.90;;;;;;;13.61;85.13;96293.14;1692394;83;21030;-64
2022/10/13 07:52:55;;;;;;;14.87;10.13;;;;;;;13.70;84.89;96298.71;1712377;82;21151;-65
2022/10/13 07:55:22;;;;;;;14.75;9.90;;;;;;;13.79;84.67;96299.00;1746038;82;21150;-65
2022/10/13 07:57:50;;;;;;;12.93;9.23;;;;;;;13.85;84.12;96298.86;1742538;82;21043;-63
2022/10/13 08:00:17;;;;;;;16.45;9.65;;;;;;;13.86;84.16;96286.04;1737854;82;21056;-65
2022/10/13 08:02:44;;;;;;;14.18;9.98;;;;;;;13.93;84.12;96284.11;1742210;82;21053;-67
2022/10/13 08:05:11;;;;;;;14.40;11.10;;;;;;;13.98;83.73;96291.52;1743279;82;21090;-63
2022/10/13 08:07:38;;;;;;;16.82;11.90;;;;;;;14.00;83.16;96289.72;1744938;82;21085;-64
2022/10/13 08:10:06;;;;;;;17.02;11.83;;;;;;;14.06;82.45;96281.61;1750379;82;21019;-66
2022/10/13 08:12:35;;;;;;;15.53;10.40;;;;;;;14.11;82.22;96286.83;1743514;82;21005;-64
2022/10/13 08:15:02;;;;;;;16.17;10.53;;;;;;;14.11;82.04;96285.08;1741312;82;21553;-64
2022/10/13 08:17:29;;;;;;;14.13;10.75;;;;;;;14.17;82.46;96279.63;1738934;82;21023;-67
2022/10/13 08:19:55;;;;;;;13.90;9.90;;;;;;;14.29;82.61;96282.47;1741744;82;21076;-65
2022/10/13 08:22:26;;;;;;;14.73;9.85;;;;;;;14.35;82.03;96285.44;1743580;82;21027;-64
2022/10/13 08:24:53;;;;;;;10.35;8.88;;;;;;;14.43;82.22;96278.16;1781106;79;21016;-64
2022/10/13 08:27:22;;;;;;;13.88;9.00;;;;;;;14.52;81.67;96281.95;1790712;80;21009;-64
2022/10/13 08:29:49;;;;;;;17.20;9.50;;;;;;;14.62;82.15;96282.19;1785214;79;21054;-64
2022/10/13 08:32:19;;;;;;;11.93;8.70;;;;;;;14.73;81.64;96279.72;1726394;83;21045;-66
2022/10/13 08:34:44;;;;;;;14.10;9.28;;;;;;;14.73;80.64;96278.40;1722064;83;21024;-66
2022/10/13 08:37:17;;;;;;;12.73;8.53;;;;;;;14.67;80.91;96282.08;1725680;83;21104;-67
2022/10/13 08:39:44;;;;;;;13.13;8.23;;;;;;;14.73;81.16;96284.58;1724705;83;21058;-65
2022/10/13 08:42:20;;;;;;;21.45;9.80;;;;;;;14.84;80.70;96281.22;1750973;82;21019;-66
2022/10/13 08:44:52;;;;;;;15.00;9.13;;;;;;;14.89;78.61;96281.08;1737901;81;21081;-64
2022/10/13 08:47:44;;;;;;;14.78;9.70;;;;;;;14.89;79.66;96281.98;1736912;82;21133;-63
2022/10/13 08:50:19;;;;;;;12.68;9.30;;;;;;;15.00;79.42;96284.37;1738882;82;21018;-64
2022/10/13 08:52:59;;;;;;;17.27;10.38;;;;;;;15.05;79.76;96280.27;1736626;82;21030;-62
2022/10/13 08:55:39;;;;;;;13.13;8.50;;;;;;;15.21;79.74;96286.92;1710544;82;21043;-64
2022/10/13 08:58:20;;;;;;;12.35;9.20;;;;;;;15.36;79.02;96293.17;1730570;82;21680;-66
2022/10/13 09:00:47;;;;;;;14.98;9.40;;;;;;;15.48;78.57;96285.80;1720599;82;21133;-67
2022/10/13 09:03:24;;;;;;;15.03;9.63;;;;;;;15.50;77.16;96278.66;1717573;82;21120;-65
2022/10/13 09:06:03;;;;;;;16.05;11.35;;;;;;;15.40;76.32;96282.02;1719832;82;21578;-62
2022/10/13 09:08:35;;;;;;;13.68;10.85;;;;;;;15.36;77.31;96283.00;1716767;82;21567;-62
2022/10/13 09:11:02;;;;;;;16.83;11.53;;;;;;;15.34;76.41;96284.36;1718994;82;21056;-63
2022/10/13 09:13:29;;;;;;;12.30;10.28;;;;;;;15.28;76.27;96285.86;1715447;82;21029;-63
2022/10/13 09:15:57;;;;;;;12.68;10.78;;;;;;;15.27;76.89;96283.23;1720194;82;21033;-63
2022/10/13 09:18:31;;;;;;;13.38;10.88;;;;;;;15.26;76.11;96278.84;1715370;82;21094;-61
2022/10/13 09:21:21;;;;;;;14.03;11.00;;;;;;;15.29;76.70;96271.64;1718946;82;21523;-61
2022/10/13 09:23:51;;;;;;;11.97;10.68;;;;;;;15.34;77.01;96278.17;1685482;82;21061;-61
2022/10/13 09:26:22;;;;;;;15.38;11.40;;;;;;;15.41;77.10;96279.77;1716754;82;21025;-61
2022/10/13 09:28:50;;;;;;;14.25;9.95;;;;;;;15.48;76.82;96273.83;1713571;82;21021;-61
2022/10/13 09:31:24;;;;;;;14.70;10.98;;;;;;;15.47;74.71;96285.36;1716488;82;21033;-61
2022/10/13 09:34:14;;;;;;;12.30;10.75;;;;;;;15.46;75.38;96282.30;1717446;82;21038;-62
2022/10/13 09:37:00;;;;;;;12.65;10.18;;;;;;;15.42;75.58;96276.20;1724221;82;21022;-61
2022/10/13 09:39:27;;;;;;;12.45;8.95;;;;;;;15.30;74.54;96278.72;1721305;82;21135;-61
2022/10/13 09:42:25;;;;;;;12.82;8.98;;;;;;;15.27;75.24;96275.25;1716211;82;21065;-61
2022/10/13 09:45:17;;;;;;;14.25;9.25;;;;;;;15.27;75.94;96270.84;1718495;82;21535;-61
2022/10/13 09:47:54;;;;;;;13.32;10.25;;;;;;;15.35;76.76;96269.30;1714096;82;21116;-61
2022/10/13 09:50:28;;;;;;;18.23;10.68;;;;;;;15.44;76.84;96264.18;1714696;82;21030;-60
2022/10/13 09:53:16;;;;;;;10.88;8.15;;;;;;;15.44;75.46;96270.83;1723935;82;21004;-61
2022/10/13 09:55:47;;;;;;;13.78;9.38;;;;;;;15.47;75.79;96266.32;1714905;82;21073;-61
2022/10/13 09:58:24;;;;;;;13.55;9.65;;;;;;;15.55;76.03;96263.45;1712319;82;21542;-61
2022/10/13 10:00:52;;;;;;;11.15;9.08;;;;;;;15.69;76.34;96256.40;1717250;82;21334;-61
2022/10/13 10:03:25;;;;;;;10.30;7.80;;;;;;;15.78;75.96;96260.17;1724407;82;21093;-61
2022/10/13 10:06:02;;;;;;;9.50;7.70;;;;;;;15.90;76.24;96257.17;1711198;82;21475;-61
2022/10/13 10:08:57;;;;;;;13.43;8.13;;;;;;;15.98;74.79;96249.83;1714470;82;21050;-61
2022/10/13 10:11:33;;;;;;;13.45;8.40;;;;;;;16.07;75.74;96255.32;1712780;82;21069;-61
2022/10/13 10:14:18;;;;;;;9.43;8.08;;;;;;;16.25;75.23;96250.37;1715190;82;21043;-61
2022/10/13 10:16:52;;;;;;;12.10;8.90;;;;;;;16.21;73.76;96251.80;1754006;81;21091;-61
2022/10/13 10:19:25;;;;;;;12.03;8.78;;;;;;;16.24;74.49;96249.50;1730688;82;21025;-61
2022/10/13 10:22:11;;;;;;;10.63;9.08;;;;;;;16.30;74.87;96249.30;1735681;81;20998;-61
2022/10/13 10:24:45;;;;;;;12.53;8.88;;;;;;;16.35;73.72;96247.83;1709041;83;21563;-61
2022/10/13 10:27:29;;;;;;;11.28;9.30;;;;;;;16.35;73.94;96246.50;1726226;83;21503;-61
2022/10/13 10:30:10;;;;;;;12.65;9.88;;;;;;;16.32;73.14;96247.93;1742900;81;21035;-61
2022/10/13 10:32:51;;;;;;;12.25;9.00;;;;;;;16.27;73.19;96240.55;1694063;83;21058;-61
2022/10/13 10:35:25;;;;;;;11.48;8.75;;;;;;;16.31;73.07;96239.08;1741484;81;21027;-61
2022/10/13 10:38:03;;;;;;;11.57;8.75;;;;;;;16.49;71.94;96234.97;1715888;82;21081;-61
2022/10/13 10:41:07;;;;;;;12.10;8.85;;;;;;;16.68;70.42;96231.70;1709976;82;21099;-62
2022/10/13 10:44:09;;;;;;;11.80;9.35;;;;;;;16.79;69.77;96222.48;1707733;82;21045;-61
2022/10/13 10:46:47;;;;;;;11.43;9.58;;;;;;;16.94;70.59;96222.44;1712252;83;21002;-61
2022/10/13 10:49:35;;;;;;;10.85;9.00;;;;;;;17.05;71.09;96218.06;1717801;82;21022;-61
2022/10/13 10:52:06;;;;;;;10.55;9.45;;;;;;;17.09;69.69;96217.05;1712498;82;21065;-61
2022/10/13 10:54:39;;;;;;;13.48;10.08;;;;;;;17.04;69.49;96213.66;1715233;82;21005;-61
2022/10/13 10:57:20;;;;;;;15.73;10.80;;;;;;;16.93;69.67;96215.80;1722427;82;21078;-61
2022/10/13 11:00:04;;;;;;;13.72;10.53;;;;;;;16.84;70.55;96205.87;1718883;82;21755;-61
2022/10/13 11:03:11;;;;;;;14.35;11.33;;;;;;;16.71;70.51;96205.84;1716004;82;21087;-61
2022/10/13 11:06:18;;;;;;;14.20;10.50;;;;;;;16.63;69.96;96198.54;1738523;82;21041;-61
2022/10/13 11:08:47;;;;;;;14.93;10.72;;;;;;;16.55;70.36;96195.27;1784086;79;21065;-61
2022/10/13 11:11:31;;;;;;;12.68;9.80;;;;;;;16.39;70.11;96202.88;1774058;79;21057;-61
2022/10/13 11:14:09;;;;;;;12.70;10.28;;;;;;;16.33;70.50;96201.73;1795664;80;21137;-61
2022/10/13 11:16:59;;;;;;;13.40;10.45;;;;;;;16.25;70.66;96196.64;1773579;79;21559;-61
2022/10/13 11:19:35;;;;;;;12.15;9.58;;;;;;;16.23;71.02;96187.86;1785489;79;21021;-61
2022/10/13 11:22:07;;;;;;;13.43;10.82;;;;;;;16.18;70.48;96196.45;1772309;79;21013;-61
2022/10/13 11:24:53;;;;;;;14.40;10.72;;;;;;;16.18;71.04;96193.79;1769959;79;20982;-61
2022/10/13 11:27:34;;;;;;;15.08;10.88;;;;;;;16.18;71.47;96198.65;1768390;79;21010;-61
2022/10/13 11:30:02;;;;;;;15.75;11.63;;;;;;;16.11;71.15;96191.77;1709364;83;21526;-61
2022/10/13 11:35:09;;;;;;;13.48;10.98;;;;;;;16.04;72.02;96174.23;1736692;81;21094;-61
2022/10/13 11:37:45;;;;;;;14.07;10.78;;;;;;;16.04;72.02;96174.23;1733214;81;21056;-61
2022/10/13 11:40:30;;;;;;;13.28;10.95;;;;;;;16.01;71.36;96183.18;1786323;79;21092;-61
2022/10/13 11:43:08;;;;;;;14.03;9.83;;;;;;;16.09;71.97;96182.08;1780198;79;21058;-61
2022/10/13 11:45:53;;;;;;;12.47;9.93;;;;;;;16.14;71.42;96175.69;1718227;83;21109;-61
2022/10/13 11:48:34;;;;;;;12.75;9.35;;;;;;;16.28;71.19;96168.61;1714806;83;21062;-61
2022/10/13 11:51:24;;;;;;;11.85;9.53;;;;;;;16.48;70.42;96164.41;1707774;82;21694;-61
2022/10/13 11:54:19;;;;;;;14.78;9.45;;;;;;;16.58;71.13;96165.84;1738473;81;21017;-61
2022/10/13 11:56:55;;;;;;;12.40;8.50;;;;;;;16.65;70.96;96170.06;1707365;83;21030;-61
2022/10/13 11:59:30;;;;;;;12.07;9.18;;;;;;;16.62;70.75;96172.36;1708228;83;21038;-61